Time;durP1;ratioP1;P1;durP2;ratioP2;P2;SDS_P1;SDS_P2;PMS_P1;PMS_P2;Temp;Humidity;BMP_temperature;BMP_pressure;BME280_temperature;BME280_humidity;BME280_pressure;Samples;Min_cycle;Max_cycle;Signal;HPM_P1;HPM_P2
2023/05/30 04:04:04;;;;;;;4.40;1.70;;;14.60;98.70;;;;;;6015980;23;20946;-69
2023/05/30 04:06:30;;;;;;;2.30;2.10;;;14.70;98.70;;;;;;4921827;29;20454;-68
2023/05/30 04:08:55;;;;;;;2.07;1.93;;;14.70;98.60;;;;;;4923120;29;20181;-68
2023/05/30 04:11:21;;;;;;;2.47;2.30;;;14.70;98.60;;;;;;4923384;29;20559;-68
2023/05/30 04:13:47;;;;;;;1.90;1.80;;;14.80;98.50;;;;;;4922689;29;20180;-69
2023/05/30 04:16:12;;;;;;;2.20;2.00;;;14.80;98.50;;;;;;4923229;29;20603;-68
2023/05/30 04:18:43;;;;;;;2.30;2.20;;;14.80;98.50;;;;;;4923100;29;20659;-68
2023/05/30 04:21:12;;;;;;;1.93;1.80;;;14.90;98.50;;;;;;4923308;29;20181;-69
2023/05/30 04:23:39;;;;;;;2.80;2.50;;;14.90;98.50;;;;;;4921356;29;20465;-69
2023/05/30 04:26:08;;;;;;;2.47;1.97;;;14.90;98.40;;;;;;4922829;29;20461;-68
2023/05/30 04:28:36;;;;;;;3.03;2.30;;;15.00;98.40;;;;;;4922997;29;20481;-69
2023/05/30 04:31:05;;;;;;;3.77;1.83;;;15.10;98.40;;;;;;4922828;29;20833;-68
2023/05/30 04:33:34;;;;;;;2.70;2.10;;;15.10;98.20;;;;;;4921015;29;20489;-70
2023/05/30 04:36:05;;;;;;;5.30;2.23;;;15.20;98.20;;;;;;4919413;29;20477;-68
2023/05/30 04:38:34;;;;;;;3.30;2.70;;;15.20;97.90;;;;;;4919860;29;20410;-68
2023/05/30 04:41:02;;;;;;;2.60;2.40;;;15.20;97.80;;;;;;4919915;29;20392;-68
2023/05/30 04:43:29;;;;;;;2.77;2.57;;;15.30;97.90;;;;;;4919471;29;20422;-69
2023/05/30 04:45:55;;;;;;;2.00;1.90;;;15.40;97.70;;;;;;4919113;29;20537;-68
2023/05/30 04:48:22;;;;;;;2.93;1.90;;;15.50;97.60;;;;;;4919033;29;20462;-68
2023/05/30 04:50:48;;;;;;;1.90;1.80;;;15.50;97.70;;;;;;4919659;29;20417;-67
2023/05/30 04:53:15;;;;;;;1.83;1.70;;;15.60;97.50;;;;;;4919363;29;20422;-69
2023/05/30 04:55:43;;;;;;;3.43;3.23;;;15.60;97.40;;;;;;4919372;29;20676;-68
2023/05/30 04:58:08;;;;;;;1.90;1.80;;;15.70;97.40;;;;;;4919703;29;20415;-68
2023/05/30 05:00:36;;;;;;;2.00;1.90;;;15.80;97.40;;;;;;4919335;29;20422;-68
2023/05/30 05:03:02;;;;;;;3.40;2.40;;;16.00;97.20;;;;;;4919413;29;20170;-69
2023/05/30 05:05:28;;;;;;;3.90;1.90;;;16.10;97.10;;;;;;4918730;29;20522;-68
2023/05/30 05:07:53;;;;;;;2.97;2.30;;;16.20;96.90;;;;;;4917746;29;20922;-68
2023/05/30 05:10:19;;;;;;;2.83;2.53;;;16.20;96.70;;;;;;4919305;29;20187;-68
2023/05/30 05:12:44;;;;;;;4.27;2.20;;;16.30;96.60;;;;;;4919491;29;20212;-69
2023/05/30 05:15:10;;;;;;;1.67;1.57;;;16.30;96.30;;;;;;4918236;29;20207;-75
2023/05/30 05:17:36;;;;;;;2.03;1.93;;;16.40;96.10;;;;;;4919245;29;20208;-76
2023/05/30 05:20:05;;;;;;;3.20;2.03;;;16.40;96.00;;;;;;4918948;29;20167;-70
2023/05/30 05:22:31;;;;;;;2.47;2.27;;;16.50;96.00;;;;;;4917875;29;20472;-68
2023/05/30 05:24:57;;;;;;;3.17;1.67;;;16.50;95.50;;;;;;4918508;29;20443;-70
2023/05/30 05:27:22;;;;;;;1.70;1.60;;;16.50;95.80;;;;;;4918760;29;20410;-70
2023/05/30 05:29:48;;;;;;;4.07;2.23;;;16.60;95.90;;;;;;4919663;29;20179;-71
2023/05/30 05:32:13;;;;;;;2.60;2.43;;;16.70;95.80;;;;;;4918825;29;20641;-70
2023/05/30 05:34:39;;;;;;;2.70;1.80;;;16.80;96.00;;;;;;4918249;29;20223;-73
2023/05/30 05:37:05;;;;;;;2.33;2.23;;;16.90;95.90;;;;;;4917514;29;20178;-67
2023/05/30 05:39:31;;;;;;;3.20;2.27;;;16.90;95.70;;;;;;4918881;29;20172;-68
2023/05/30 05:41:56;;;;;;;2.43;2.23;;;17.10;95.90;;;;;;4917733;29;20414;-72
2023/05/30 05:44:22;;;;;;;1.97;1.83;;;17.10;95.70;;;;;;4917957;29;20202;-67
2023/05/30 05:46:47;;;;;;;1.90;1.80;;;17.20;95.40;;;;;;4917988;29;20194;-67
2023/05/30 05:49:13;;;;;;;2.50;2.30;;;17.20;95.30;;;;;;4918495;29;20183;-67
2023/05/30 05:51:38;;;;;;;2.10;1.90;;;17.30;95.30;;;;;;4918373;29;20681;-67
2023/05/30 05:54:04;;;;;;;2.47;1.97;;;17.40;95.10;;;;;;4917651;29;20626;-68
2023/05/30 05:56:30;;;;;;;2.63;2.43;;;17.40;95.00;;;;;;4917281;29;20177;-68
2023/05/30 05:58:55;;;;;;;1.80;1.70;;;17.50;95.20;;;;;;4918257;29;20416;-66
2023/05/30 06:01:21;;;;;;;1.77;1.67;;;17.70;95.40;;;;;;4918099;29;20181;-68
2023/05/30 06:03:47;;;;;;;2.27;1.90;;;17.80;94.90;;;;;;4917714;29;20526;-65
2023/05/30 06:06:12;;;;;;;4.80;1.63;;;17.90;94.50;;;;;;4918072;29;20188;-67
2023/05/30 06:08:38;;;;;;;3.23;2.00;;;18.00;94.10;;;;;;4918321;29;20181;-68
2023/05/30 06:11:04;;;;;;;2.17;2.03;;;18.20;94.00;;;;;;4918193;29;20678;-67
2023/05/30 06:13:30;;;;;;;2.47;2.27;;;18.30;93.90;;;;;;4917492;29;20178;-66
2023/05/30 06:15:55;;;;;;;1.80;1.70;;;18.50;93.70;;;;;;4917677;29;20218;-67
2023/05/30 06:18:21;;;;;;;2.30;2.10;;;18.40;93.20;;;;;;4918080;29;20417;-66
2023/05/30 06:20:47;;;;;;;1.70;1.60;;;18.30;93.20;;;;;;4917983;29;20643;-68
2023/05/30 06:23:12;;;;;;;2.17;2.00;;;18.40;93.20;;;;;;4917447;29;20173;-68
2023/05/30 06:25:39;;;;;;;2.70;2.40;;;18.40;93.80;;;;;;4916467;29;20210;-66
2023/05/30 06:28:04;;;;;;;2.30;2.10;;;18.50;93.60;;;;;;4917674;29;20178;-67
2023/05/30 06:30:30;;;;;;;3.50;2.80;;;18.60;93.80;;;;;;4918355;29;20410;-66
2023/05/30 06:32:55;;;;;;;2.83;1.90;;;18.80;93.10;;;;;;4917660;29;20178;-67
2023/05/30 06:35:21;;;;;;;2.07;1.97;;;18.90;93.40;;;;;;4916140;29;20297;-68
2023/05/30 06:37:47;;;;;;;5.90;2.20;;;18.90;93.30;;;;;;4916386;29;20182;-66
2023/05/30 06:40:12;;;;;;;2.10;1.93;;;19.00;93.10;;;;;;4917731;29;20174;-68
2023/05/30 06:42:38;;;;;;;3.63;2.83;;;19.20;93.00;;;;;;4917557;29;20183;-70
2023/05/30 06:45:04;;;;;;;3.07;2.87;;;19.20;92.70;;;;;;4917241;29;20249;-68
2023/05/30 06:47:29;;;;;;;1.97;1.87;;;19.40;92.80;;;;;;4917661;29;20178;-70
2023/05/30 06:49:55;;;;;;;2.70;1.67;;;19.50;92.50;;;;;;4916282;29;20483;-68
2023/05/30 06:52:21;;;;;;;3.50;2.40;;;19.60;91.90;;;;;;4917624;29;20665;-71
2023/05/30 06:54:46;;;;;;;3.00;1.67;;;19.60;91.50;;;;;;4916933;29;20213;-70
2023/05/30 06:57:12;;;;;;;2.10;2.00;;;19.80;90.70;;;;;;4917607;29;20183;-72
2023/05/30 06:59:37;;;;;;;2.50;2.30;;;19.90;89.60;;;;;;4916783;29;20185;-69
2023/05/30 07:02:03;;;;;;;3.60;2.30;;;20.00;89.50;;;;;;4917286;29;20656;-73
2023/05/30 07:04:29;;;;;;;2.00;1.50;;;20.10;89.10;;;;;;4916796;29;20204;-69
2023/05/30 07:06:55;;;;;;;1.90;1.80;;;20.20;87.00;;;;;;4916530;29;20427;-73
2023/05/30 07:09:20;;;;;;;1.30;1.20;;;20.10;86.70;;;;;;4916449;29;20629;-73
2023/05/30 07:11:46;;;;;;;2.50;2.30;;;20.20;87.60;;;;;;4916580;29;20501;-72
2023/05/30 07:14:12;;;;;;;1.57;1.47;;;20.30;87.20;;;;;;4916090;29;20301;-70
2023/05/30 07:16:38;;;;;;;1.60;1.50;;;20.40;86.50;;;;;;4916461;29;20554;-71
2023/05/30 07:19:03;;;;;;;1.97;1.80;;;20.50;86.60;;;;;;4916545;29;20166;-70
2023/05/30 07:21:29;;;;;;;2.30;1.53;;;20.60;86.30;;;;;;4916598;29;20387;-68
2023/05/30 07:23:58;;;;;;;1.17;1.17;;;20.70;84.70;;;;;;4914712;29;20245;-73
2023/05/30 07:26:23;;;;;;;2.13;2.03;;;20.90;85.00;;;;;;4914943;29;20541;-73
2023/05/30 07:28:49;;;;;;;1.67;1.57;;;21.00;85.30;;;;;;4916882;29;20397;-73
2023/05/30 07:31:15;;;;;;;2.13;1.93;;;21.00;83.60;;;;;;4916164;29;20174;-71
2023/05/30 07:33:40;;;;;;;2.40;1.50;;;21.20;84.00;;;;;;4915898;29;20166;-71
2023/05/30 07:36:07;;;;;;;1.80;1.70;;;21.60;84.30;;;;;;4916187;29;20609;-71
2023/05/30 07:38:33;;;;;;;2.10;2.00;;;22.20;82.00;;;;;;4915906;29;20653;-71
2023/05/30 07:40:59;;;;;;;2.10;1.87;;;23.00;80.10;;;;;;4916075;29;20441;-70
2023/05/30 07:43:24;;;;;;;2.37;2.17;;;23.60;78.20;;;;;;4915852;29;20397;-73
2023/05/30 07:45:50;;;;;;;2.07;1.67;;;24.00;76.70;;;;;;4915795;29;20198;-72
2023/05/30 07:48:15;;;;;;;2.17;2.07;;;24.30;76.30;;;;;;4916016;29;20241;-71
2023/05/30 07:50:41;;;;;;;1.90;1.80;;;24.70;75.30;;;;;;4916047;29;20181;-71
2023/05/30 07:53:07;;;;;;;2.53;1.90;;;25.00;73.20;;;;;;4915888;29;20183;-70
2023/05/30 07:55:32;;;;;;;2.10;1.90;;;25.50;72.40;;;;;;4915764;29;20621;-71
2023/05/30 07:57:58;;;;;;;1.67;1.57;;;25.60;70.20;;;;;;4915801;29;20170;-70
2023/05/30 08:00:23;;;;;;;2.43;2.03;;;25.50;70.70;;;;;;4915703;29;20174;-70
2023/05/30 08:02:49;;;;;;;1.40;1.30;;;25.60;70.60;;;;;;4915987;29;20171;-69
2023/05/30 08:05:15;;;;;;;2.13;2.00;;;26.20;69.40;;;;;;4865957;29;1460426;-74
2023/05/30 08:07:40;;;;;;;2.20;2.00;;;26.80;67.70;;;;;;4916833;29;20206;-71
2023/05/30 08:10:07;;;;;;;2.57;1.97;;;27.10;66.50;;;;;;4918805;29;20175;-71
2023/05/30 08:12:32;;;;;;;2.03;1.93;;;27.50;66.50;;;;;;4920350;29;20179;-71
2023/05/30 08:14:58;;;;;;;1.67;1.57;;;28.20;64.50;;;;;;4919171;29;20445;-71
2023/05/30 08:17:25;;;;;;;1.90;1.80;;;28.80;61.90;;;;;;4920195;29;20182;-72
2023/05/30 08:19:52;;;;;;;2.10;1.90;;;29.30;60.90;;;;;;4920546;29;20529;-70
2023/05/30 08:22:21;;;;;;;3.47;2.60;;;29.70;59.40;;;;;;4920191;29;20410;-71
2023/05/30 08:24:51;;;;;;;1.80;1.70;;;30.20;58.50;;;;;;4919064;29;20927;-68
2023/05/30 08:27:17;;;;;;;2.70;2.50;;;30.60;58.10;;;;;;4919914;29;20430;-69
2023/05/30 08:29:44;;;;;;;2.30;2.13;;;30.80;57.50;;;;;;4919638;29;20434;-68
2023/05/30 08:32:10;;;;;;;2.50;2.30;;;30.90;57.90;;;;;;4919536;29;20410;-68
2023/05/30 08:34:36;;;;;;;2.87;2.57;;;31.30;57.00;;;;;;4918664;29;20436;-68
2023/05/30 08:37:02;;;;;;;2.13;2.03;;;31.80;56.20;;;;;;4919292;29;20206;-69
2023/05/30 08:39:28;;;;;;;2.50;2.30;;;32.10;56.20;;;;;;4918556;29;20434;-70
2023/05/30 08:41:53;;;;;;;3.33;2.73;;;32.20;55.20;;;;;;4918887;29;20688;-69
2023/05/30 08:44:19;;;;;;;2.37;2.07;;;32.40;54.30;;;;;;4919368;29;20202;-68
2023/05/30 08:46:45;;;;;;;2.10;1.90;;;31.90;54.60;;;;;;4919692;29;20210;-69
2023/05/30 08:49:15;;;;;;;2.20;2.00;;;31.80;56.90;;;;;;4919857;29;20182;-70
2023/05/30 08:51:42;;;;;;;2.20;2.10;;;31.60;55.80;;;;;;4919796;29;20407;-67
2023/05/30 08:54:15;;;;;;;5.40;3.10;;;31.30;55.30;;;;;;4918522;29;20488;-66
2023/05/30 08:56:47;;;;;;;1.97;1.87;;;31.30;54.80;;;;;;4918981;29;20461;-68
2023/05/30 08:59:16;;;;;;;2.10;1.90;;;31.20;54.90;;;;;;4919733;29;20434;-70
2023/05/30 09:01:42;;;;;;;2.00;1.90;;;31.20;56.60;;;;;;4919607;29;20901;-68
2023/05/30 09:04:09;;;;;;;2.10;2.00;;;31.20;56.30;;;;;;4919025;29;20434;-69
2023/05/30 09:06:38;;;;;;;2.60;2.50;;;31.50;55.00;;;;;;4919336;29;20822;-68
2023/05/30 09:09:08;;;;;;;2.60;2.40;;;31.40;54.80;;;;;;4919208;29;20925;-69
2023/05/30 09:11:34;;;;;;;2.43;2.23;;;31.50;54.20;;;;;;4919512;29;20414;-68
2023/05/30 09:14:00;;;;;;;2.87;2.63;;;31.70;54.20;;;;;;4918760;29;20924;-69
2023/05/30 09:16:26;;;;;;;2.07;1.97;;;32.20;53.70;;;;;;4919213;29;20178;-68
2023/05/30 09:18:51;;;;;;;2.17;2.07;;;32.50;53.80;;;;;;4918705;29;20418;-69
2023/05/30 09:21:17;;;;;;;2.03;1.93;;;32.40;53.60;;;;;;4918008;29;20261;-66
2023/05/30 09:23:43;;;;;;;2.43;2.23;;;32.30;53.20;;;;;;4918686;29;20178;-69
2023/05/30 09:26:13;;;;;;;2.30;2.10;;;32.10;52.90;;;;;;4917457;29;20205;-67
2023/05/30 09:28:38;;;;;;;2.37;2.20;;;31.80;53.30;;;;;;4919048;29;20209;-70
2023/05/30 09:31:06;;;;;;;2.07;1.97;;;31.70;53.90;;;;;;4919082;29;20462;-68
2023/05/30 09:33:49;;;;;;;2.27;2.07;;;31.70;53.90;;;;;;4918252;29;20188;-67
2023/05/30 09:36:19;;;;;;;2.50;2.30;;;32.00;53.50;;;;;;4918834;29;20537;-68
2023/05/30 09:38:53;;;;;;;2.30;2.20;;;32.20;52.80;;;;;;4918759;29;20893;-70
2023/05/30 09:41:20;;;;;;;2.80;2.40;;;32.10;52.30;;;;;;4918849;29;20417;-69
2023/05/30 09:43:52;;;;;;;2.50;2.30;;;32.00;52.60;;;;;;4918050;29;20999;-70
2023/05/30 09:46:19;;;;;;;2.77;2.23;;;32.00;52.50;;;;;;4918653;29;20418;-69
2023/05/30 09:48:45;;;;;;;2.10;2.00;;;32.10;53.00;;;;;;4918010;29;20449;-70
2023/05/30 09:51:11;;;;;;;2.37;2.17;;;32.20;52.20;;;;;;4918730;29;20410;-67
2023/05/30 09:53:37;;;;;;;2.30;2.00;;;32.20;52.70;;;;;;4918273;29;20541;-68
2023/05/30 09:56:03;;;;;;;3.13;2.83;;;32.10;52.20;;;;;;4917182;29;20300;-69
2023/05/30 09:58:29;;;;;;;2.47;2.27;;;32.10;52.30;;;;;;4918418;29;20177;-68
2023/05/30 10:00:56;;;;;;;2.50;2.30;;;32.20;52.20;;;;;;4918469;29;20394;-70
2023/05/30 10:03:41;;;;;;;2.37;2.17;;;32.00;52.10;;;;;;4917753;29;20190;-70
2023/05/30 10:06:14;;;;;;;2.53;2.33;;;32.00;52.90;;;;;;4918061;29;20821;-68
2023/05/30 10:08:45;;;;;;;2.90;2.40;;;32.10;52.80;;;;;;4918297;29;20913;-67
2023/05/30 10:11:11;;;;;;;2.77;2.57;;;32.40;52.40;;;;;;4918312;29;20888;-69
2023/05/30 10:13:38;;;;;;;2.77;2.07;;;32.40;51.80;;;;;;4917840;29;20407;-67
2023/05/30 10:16:10;;;;;;;2.97;2.33;;;32.60;51.70;;;;;;4917813;29;20458;-68
2023/05/30 10:18:42;;;;;;;2.13;2.03;;;32.70;51.20;;;;;;4918150;29;20781;-68
2023/05/30 10:21:11;;;;;;;1.87;1.77;;;32.40;51.60;;;;;;4918069;29;20426;-66
2023/05/30 10:23:39;;;;;;;2.63;2.43;;;32.30;52.70;;;;;;4917570;29;20438;-67
2023/05/30 10:26:07;;;;;;;4.20;2.17;;;32.10;51.50;;;;;;4917798;29;20430;-68
2023/05/30 10:28:34;;;;;;;2.27;2.13;;;32.30;52.20;;;;;;4917970;29;20430;-70
2023/05/30 10:31:03;;;;;;;2.60;2.40;;;32.50;51.80;;;;;;4917916;29;20446;-68
2023/05/30 10:33:33;;;;;;;2.53;2.20;;;32.00;51.80;;;;;;4917206;29;20489;-70
2023/05/30 10:35:59;;;;;;;2.60;2.40;;;32.00;52.00;;;;;;4917410;29;20964;-68
2023/05/30 10:38:27;;;;;;;2.20;2.10;;;31.70;51.90;;;;;;4917614;29;20433;-68
2023/05/30 10:41:00;;;;;;;2.93;2.40;;;31.10;52.50;;;;;;4917489;29;20171;-69
2023/05/30 10:43:44;;;;;;;2.60;2.23;;;30.50;53.00;;;;;;4917151;29;20464;-70
2023/05/30 10:46:27;;;;;;;2.40;2.20;;;30.20;53.80;;;;;;4917407;29;20920;-70
2023/05/30 10:49:01;;;;;;;2.47;2.27;;;29.90;53.40;;;;;;4917340;29;20450;-70
2023/05/30 10:51:27;;;;;;;2.53;2.33;;;29.60;54.40;;;;;;4917575;29;20392;-69
2023/05/30 10:53:52;;;;;;;2.10;2.00;;;29.60;55.00;;;;;;4916515;29;20427;-70
2023/05/30 10:56:34;;;;;;;2.53;2.33;;;29.60;53.90;;;;;;4917046;29;20748;-68
2023/05/30 10:59:02;;;;;;;4.00;2.40;;;29.60;53.80;;;;;;4917276;29;20181;-67
2023/05/30 11:01:32;;;;;;;1.70;1.60;;;29.40;54.00;;;;;;4917061;29;20389;-68
2023/05/30 11:04:04;;;;;;;2.70;2.50;;;29.10;54.40;;;;;;4916817;29;20501;-68
2023/05/30 11:06:44;;;;;;;2.60;2.10;;;28.90;55.30;;;;;;4917316;29;20760;-68
2023/05/30 11:09:14;;;;;;;2.03;1.93;;;28.50;55.70;;;;;;4916693;29;20397;-68
2023/05/30 11:11:43;;;;;;;1.77;1.67;;;28.10;56.10;;;;;;4915526;29;21051;-68
2023/05/30 11:14:11;;;;;;;2.30;2.10;;;27.50;57.20;;;;;;4916474;29;20430;-70
2023/05/30 11:16:54;;;;;;;2.20;2.10;;;26.80;57.70;;;;;;4917246;29;20524;-70
2023/05/30 11:19:28;;;;;;;1.90;1.80;;;26.30;57.70;;;;;;4917085;29;20391;-71
2023/05/30 11:21:58;;;;;;;2.10;1.93;;;25.70;58.80;;;;;;4917308;29;20499;-69
2023/05/30 11:24:28;;;;;;;2.20;1.73;;;25.30;59.40;;;;;;4916117;29;20463;-68
2023/05/30 11:26:58;;;;;;;2.33;2.13;;;25.00;60.60;;;;;;4916707;29;20445;-69
2023/05/30 11:29:33;;;;;;;1.90;1.80;;;24.70;62.00;;;;;;4915052;29;20773;-70
2023/05/30 11:32:04;;;;;;;1.70;1.60;;;24.60;61.90;;;;;;4915573;29;20810;-69
2023/05/30 11:34:30;;;;;;;2.43;2.30;;;24.50;62.00;;;;;;4916337;29;20552;-70
2023/05/30 11:36:56;;;;;;;3.43;1.80;;;24.50;63.00;;;;;;4916820;29;20927;-70
2023/05/30 11:39:22;;;;;;;2.13;1.97;;;24.60;62.20;;;;;;4915521;29;20641;-70
2023/05/30 11:41:48;;;;;;;1.53;1.43;;;24.60;62.00;;;;;;4916972;29;20422;-70
2023/05/30 11:44:18;;;;;;;2.23;2.03;;;24.60;61.00;;;;;;4916915;29;20443;-72
2023/05/30 11:46:44;;;;;;;2.23;2.07;;;24.60;63.50;;;;;;4920496;29;20377;-68
2023/05/30 11:49:09;;;;;;;2.53;1.90;;;24.70;62.60;;;;;;4920538;29;20473;-68
2023/05/30 11:51:38;;;;;;;2.27;2.07;;;24.60;61.90;;;;;;4920578;29;20181;-68
2023/05/30 11:54:06;;;;;;;2.60;1.67;;;24.60;61.30;;;;;;4920242;29;20654;-69
2023/05/30 11:56:31;;;;;;;2.20;2.00;;;24.40;61.20;;;;;;4920568;29;20393;-69
2023/05/30 11:58:58;;;;;;;2.27;2.13;;;24.20;61.90;;;;;;4920065;29;20422;-69
2023/05/30 12:01:25;;;;;;;2.13;1.80;;;24.20;61.10;;;;;;4920190;29;20506;-69
2023/05/30 12:03:51;;;;;;;2.77;2.57;;;24.00;61.70;;;;;;4919780;29;20397;-68
2023/05/30 12:06:16;;;;;;;2.43;2.23;;;24.00;63.70;;;;;;4920113;29;20438;-68
2023/05/30 12:08:43;;;;;;;1.73;1.63;;;24.00;61.90;;;;;;4920118;29;20420;-67
2023/05/30 12:11:12;;;;;;;1.83;1.73;;;24.10;62.40;;;;;;4920114;29;20645;-67
2023/05/30 12:13:38;;;;;;;2.03;1.93;;;24.10;62.50;;;;;;4920063;29;20414;-67
2023/05/30 12:16:04;;;;;;;2.00;1.80;;;24.10;63.00;;;;;;4920076;29;20513;-68
2023/05/30 12:18:32;;;;;;;2.53;2.33;;;24.20;62.90;;;;;;4919328;29;20404;-67
2023/05/30 12:21:02;;;;;;;1.93;1.70;;;24.20;62.30;;;;;;4918112;29;20401;-67
2023/05/30 12:23:28;;;;;;;2.10;2.00;;;24.20;62.40;;;;;;4917741;29;20415;-67
2023/05/30 12:25:55;;;;;;;1.60;1.50;;;24.20;62.90;;;;;;4917248;29;20964;-67
2023/05/30 12:28:21;;;;;;;2.30;2.10;;;24.30;61.80;;;;;;4918479;29;20414;-67
2023/05/30 12:30:50;;;;;;;2.70;1.80;;;24.30;61.30;;;;;;4918400;29;20425;-67
2023/05/30 12:33:17;;;;;;;1.90;1.67;;;24.30;61.20;;;;;;4917982;29;21063;-68
2023/05/30 12:35:43;;;;;;;2.17;2.07;;;24.30;62.60;;;;;;4919845;29;20431;-66
2023/05/30 12:38:11;;;;;;;1.70;1.60;;;24.30;61.70;;;;;;4920065;29;20381;-67
2023/05/30 12:40:50;;;;;;;2.47;2.13;;;24.40;61.00;;;;;;4919827;29;20536;-68
2023/05/30 12:43:24;;;;;;;2.53;2.33;;;24.40;61.20;;;;;;4918161;29;20401;-68
2023/05/30 12:45:50;;;;;;;1.60;1.50;;;24.40;61.20;;;;;;4919414;29;20492;-67
2023/05/30 12:48:15;;;;;;;1.57;1.50;;;24.40;61.70;;;;;;4919395;29;20462;-66
2023/05/30 12:50:41;;;;;;;2.23;2.00;;;24.40;61.00;;;;;;4918229;29;20178;-66
2023/05/30 12:53:07;;;;;;;2.00;1.90;;;24.40;60.70;;;;;;4918142;29;20238;-66
2023/05/30 12:55:32;;;;;;;1.30;1.20;;;24.30;61.20;;;;;;4917191;29;20314;-68
2023/05/30 12:57:59;;;;;;;2.10;1.90;;;24.30;60.90;;;;;;4919405;29;20179;-69
2023/05/30 13:00:26;;;;;;;2.80;1.83;;;24.30;61.20;;;;;;4919298;29;20166;-68
2023/05/30 13:02:52;;;;;;;1.60;1.50;;;24.30;60.50;;;;;;4919100;29;20432;-68
2023/05/30 13:05:19;;;;;;;2.37;2.17;;;24.30;61.10;;;;;;4918124;29;20458;-70
2023/05/30 13:07:44;;;;;;;1.60;1.50;;;24.20;61.30;;;;;;4918761;29;20409;-76
2023/05/30 13:10:12;;;;;;;1.87;1.77;;;24.30;61.70;;;;;;4918778;29;20453;-70
2023/05/30 13:12:38;;;;;;;2.03;1.33;;;24.40;61.30;;;;;;4918828;29;20242;-72
2023/05/30 13:15:04;;;;;;;1.77;1.67;;;24.40;60.40;;;;;;4918024;29;20466;-71
2023/05/30 13:17:29;;;;;;;1.57;1.47;;;24.40;60.70;;;;;;4918332;29;20667;-73
2023/05/30 13:19:55;;;;;;;1.80;1.70;;;24.40;60.60;;;;;;4918532;29;20414;-68
2023/05/30 13:22:21;;;;;;;1.87;1.77;;;24.40;60.10;;;;;;4918916;29;20177;-65
2023/05/30 13:24:48;;;;;;;1.60;1.50;;;24.40;60.20;;;;;;4918671;29;20190;-67
2023/05/30 13:27:14;;;;;;;2.07;1.97;;;24.40;60.20;;;;;;4918679;29;20436;-68
2023/05/30 13:29:40;;;;;;;1.60;1.50;;;24.50;59.80;;;;;;4919018;29;20457;-68
2023/05/30 13:32:07;;;;;;;2.27;2.07;;;24.60;60.80;;;;;;4918486;29;20302;-66
2023/05/30 13:34:33;;;;;;;2.00;1.90;;;24.80;59.90;;;;;;4918312;29;20297;-69
2023/05/30 13:36:58;;;;;;;2.77;2.20;;;24.80;59.50;;;;;;4918644;29;20446;-67
2023/05/30 13:39:25;;;;;;;1.60;1.50;;;24.70;60.40;;;;;;4918755;29;20171;-65
2023/05/30 13:41:50;;;;;;;1.50;1.40;;;24.60;59.30;;;;;;4918241;29;20182;-72
2023/05/30 13:44:16;;;;;;;1.57;1.30;;;24.50;59.80;;;;;;4917728;29;20445;-69
2023/05/30 13:46:42;;;;;;;1.47;1.37;;;24.40;60.00;;;;;;4918600;29;20176;-67
2023/05/30 13:49:07;;;;;;;2.73;1.87;;;24.20;61.40;;;;;;4918435;29;20641;-68
2023/05/30 13:51:33;;;;;;;1.80;1.70;;;24.10;60.80;;;;;;4918447;29;20250;-67
2023/05/30 13:54:03;;;;;;;2.07;1.87;;;24.00;60.20;;;;;;4918041;29;20178;-69
2023/05/30 13:56:29;;;;;;;7.47;2.30;;;23.70;61.40;;;;;;4917897;29;20438;-68
2023/05/30 13:58:55;;;;;;;1.70;1.60;;;23.50;61.30;;;;;;4918479;29;20410;-68
2023/05/30 14:01:22;;;;;;;1.80;1.70;;;23.40;60.70;;;;;;4918237;29;20404;-68
2023/05/30 14:03:48;;;;;;;3.10;1.73;;;23.20;62.00;;;;;;4917883;29;20187;-65
2023/05/30 14:06:14;;;;;;;2.90;1.77;;;23.30;62.90;;;;;;4917940;29;20434;-70
2023/05/30 14:08:39;;;;;;;1.60;1.50;;;23.40;63.30;;;;;;4917913;29;20904;-66
2023/05/30 14:11:06;;;;;;;2.63;1.50;;;23.60;63.70;;;;;;4917805;29;20178;-69
2023/05/30 14:13:32;;;;;;;2.20;2.00;;;23.80;63.90;;;;;;4917541;29;20174;-66
2023/05/30 14:15:58;;;;;;;1.50;1.40;;;24.00;63.00;;;;;;4918011;29;20463;-67
2023/05/30 14:18:23;;;;;;;1.43;1.33;;;24.20;63.80;;;;;;4917979;29;20402;-67
2023/05/30 14:20:50;;;;;;;1.90;1.80;;;24.30;62.00;;;;;;4917914;29;20182;-70
2023/05/30 14:23:16;;;;;;;2.77;2.10;;;24.30;61.30;;;;;;4917501;29;20185;-68
2023/05/30 14:25:41;;;;;;;2.20;1.73;;;24.30;61.90;;;;;;4917582;29;20446;-67
2023/05/30 14:28:07;;;;;;;1.43;1.33;;;24.20;59.90;;;;;;4917778;29;20487;-70
2023/05/30 14:30:33;;;;;;;1.60;1.50;;;24.10;60.60;;;;;;4917735;29;20226;-67
2023/05/30 14:32:59;;;;;;;3.00;2.27;;;24.10;60.50;;;;;;4917631;29;20185;-67
2023/05/30 14:35:25;;;;;;;2.00;1.90;;;24.00;59.80;;;;;;4917287;29;20530;-67
2023/05/30 14:37:50;;;;;;;2.50;1.60;;;23.80;60.10;;;;;;4917782;29;20446;-70
2023/05/30 14:40:16;;;;;;;2.20;1.57;;;23.80;60.90;;;;;;4917925;29;20170;-66
2023/05/30 14:42:42;;;;;;;1.93;1.83;;;23.70;61.50;;;;;;4917577;29;20171;-67
2023/05/30 14:45:09;;;;;;;1.87;1.77;;;23.70;62.00;;;;;;4917029;29;20664;-65
2023/05/30 14:47:35;;;;;;;1.60;1.50;;;23.80;61.20;;;;;;4917562;29;20190;-68
2023/05/30 14:50:05;;;;;;;2.53;2.33;;;23.80;61.00;;;;;;4917363;29;20386;-67
2023/05/30 14:52:31;;;;;;;1.37;1.20;;;23.80;61.00;;;;;;4916979;29;20565;-67
2023/05/30 14:54:58;;;;;;;1.80;1.70;;;23.70;60.40;;;;;;4916796;29;20852;-71
2023/05/30 14:57:23;;;;;;;1.93;1.77;;;23.70;61.70;;;;;;4917299;29;20413;-67
2023/05/30 14:59:49;;;;;;;1.50;1.40;;;23.70;61.60;;;;;;4917597;29;20496;-66
2023/05/30 15:02:15;;;;;;;2.60;2.40;;;23.60;61.20;;;;;;4916123;29;20733;-67
2023/05/30 15:04:40;;;;;;;1.67;1.40;;;23.70;60.90;;;;;;4916392;29;20216;-68
2023/05/30 15:07:06;;;;;;;1.50;1.40;;;23.60;60.60;;;;;;4917103;29;20381;-66
2023/05/30 15:09:32;;;;;;;1.80;1.70;;;23.60;60.70;;;;;;4917171;29;20770;-67
2023/05/30 15:11:57;;;;;;;2.00;1.90;;;23.50;60.60;;;;;;4917005;29;20174;-68
2023/05/30 15:14:23;;;;;;;1.00;1.00;;;23.50;60.90;;;;;;4916556;29;20281;-66
2023/05/30 15:16:49;;;;;;;1.67;1.57;;;23.40;60.90;;;;;;4917242;29;20284;-67
2023/05/30 15:19:14;;;;;;;1.63;1.53;;;23.40;61.60;;;;;;4916177;29;20180;-68
2023/05/30 15:21:41;;;;;;;3.60;1.87;;;23.40;61.30;;;;;;4916924;29;20224;-69
2023/05/30 15:24:07;;;;;;;2.20;2.00;;;23.40;61.00;;;;;;4916602;29;20282;-66
2023/05/30 15:26:32;;;;;;;1.50;1.40;;;23.40;60.70;;;;;;4916062;29;20393;-71
2023/05/30 15:28:58;;;;;;;1.20;1.20;;;23.40;60.10;;;;;;4916476;29;20440;-68
2023/05/30 15:31:24;;;;;;;1.90;1.70;;;23.40;60.40;;;;;;4914820;29;20270;-68
2023/05/30 15:33:51;;;;;;;1.83;1.73;;;23.40;59.90;;;;;;4914502;29;20182;-69
2023/05/30 15:36:18;;;;;;;1.90;1.73;;;23.40;60.00;;;;;;4916966;29;20485;-72
2023/05/30 15:38:44;;;;;;;1.57;1.47;;;23.40;59.70;;;;;;4917126;29;20410;-70
2023/05/30 15:41:09;;;;;;;2.60;1.93;;;23.30;59.40;;;;;;4916896;29;20838;-72
2023/05/30 15:43:35;;;;;;;2.53;2.33;;;23.20;59.60;;;;;;4916504;29;20456;-69
2023/05/30 15:46:01;;;;;;;1.40;1.33;;;23.30;59.70;;;;;;4916579;29;20240;-70
2023/05/30 15:48:30;;;;;;;1.53;1.40;;;23.20;59.60;;;;;;4916527;29;20182;-69
2023/05/30 15:50:57;;;;;;;1.23;1.23;;;23.20;59.60;;;;;;4916518;29;20418;-69
2023/05/30 15:53:22;;;;;;;2.10;1.83;;;23.20;59.70;;;;;;4916449;29;20434;-68
2023/05/30 15:55:48;;;;;;;2.73;2.53;;;23.10;59.50;;;;;;4915484;29;20525;-69
2023/05/30 15:58:14;;;;;;;1.50;1.40;;;23.10;59.80;;;;;;4916659;29;20264;-69
2023/05/30 16:00:39;;;;;;;1.57;1.43;;;23.20;60.30;;;;;;4916977;29;20178;-69
2023/05/30 16:03:05;;;;;;;1.60;1.50;;;23.20;60.90;;;;;;4916412;29;20249;-68
2023/05/30 16:05:31;;;;;;;2.37;1.53;;;23.30;60.40;;;;;;4916540;29;20771;-70
2023/05/30 16:07:59;;;;;;;1.70;1.60;;;23.30;59.70;;;;;;4917801;29;20251;-69
2023/05/30 16:10:25;;;;;;;3.47;1.20;;;23.30;59.30;;;;;;4921218;29;20181;-71
2023/05/30 16:12:51;;;;;;;2.23;1.47;;;23.30;59.40;;;;;;4919465;29;20429;-70
2023/05/30 16:15:17;;;;;;;2.20;1.50;;;23.30;59.20;;;;;;4916902;29;20259;-67
2023/05/30 16:17:42;;;;;;;7.27;1.60;;;23.30;59.00;;;;;;4916822;29;20585;-68
2023/05/30 16:20:09;;;;;;;1.57;1.50;;;23.20;59.20;;;;;;4916512;29;20410;-67
2023/05/30 16:22:35;;;;;;;1.60;1.27;;;23.20;59.60;;;;;;4915936;29;20253;-68
2023/05/30 16:25:01;;;;;;;3.20;1.47;;;23.10;59.30;;;;;;4910602;29;20598;-68
2023/05/30 16:27:26;;;;;;;1.73;1.57;;;23.20;59.20;;;;;;4908931;29;20167;-68
2023/05/30 16:29:52;;;;;;;1.90;1.70;;;23.10;59.00;;;;;;4913294;29;20488;-67
2023/05/30 16:32:20;;;;;;;2.20;1.53;;;23.10;58.80;;;;;;4917927;29;20264;-66
2023/05/30 16:34:46;;;;;;;1.87;1.13;;;23.10;58.90;;;;;;4918008;29;20224;-68
2023/05/30 16:37:12;;;;;;;2.27;1.60;;;23.00;59.20;;;;;;4919277;29;20398;-68
2023/05/30 16:39:37;;;;;;;1.60;1.50;;;23.00;58.80;;;;;;4918880;29;20936;-67
2023/05/30 16:42:03;;;;;;;2.33;1.80;;;23.00;58.60;;;;;;4918898;29;20176;-66
2023/05/30 16:44:29;;;;;;;1.83;1.73;;;23.00;59.00;;;;;;4918793;29;20208;-71
2023/05/30 16:46:55;;;;;;;2.63;1.67;;;23.00;58.10;;;;;;4918800;29;20179;-66
2023/05/30 16:49:20;;;;;;;2.13;1.07;;;23.00;58.20;;;;;;4919225;29;20466;-64